Elblag, Poland
Current Conditions -  °F | °C
As of 3:00 PM on Monday 20 Oct 2014 (Local Time) from EPGD Reporting Station
Scattered Clouds Scattered Clouds  
Wind Chill: 55°   Ceiling: Unl
Heat Index: 55°   Visibility: 6mi
Dew Point: 50°   Wind: 14mph
Humidity: 82%   Direction: 280°W
Pressure: 29.65"   Gusts: NA
Location:  54.18°N, 19.4°E
Report Text: EPGD 201300Z 28012KT 250V310 9999 SCT021 13/10 Q1004
Loading
Personal Weather Stations






























Interactive Weather Map
Tropical Storm Tracking
New forecast layout! Learn more

10-Day Weather Forecast

Advertisements
Track Severe Weather on mobile